Strona główna
METAR-TAF:

METAR-TAF

Lotnisko :

Port lotniczy Pjongjang-Sunan

Pjongjang, Korea Północna

Szerokość geograficzna: 39-02N, Długość geograficzna: 125-47E, wysokość: 36 m

METAR: brakujący

czas: 20:40 (12:10 UTC)

Prognoza

Raport powstał 8 godziny i 0 minut temu, godzina 04:10 UTC
Prognoza ważna od 16 godzina 06 UTC do 17 godzina 06 UTC
Wiatr 12 kt od wschodnio-północny wschód
Widzialność 10 km lub więcej
Przerywane chmury na wysokości 1300 ft
Stopniowe zmiany
od 16 godzina 11 UTC do 16 godzina 13 UTC
Wiatr 8 kt od wschód
Widzialność 10 km lub więcej
Brak chmur poniżej 1500 m i brak chmur cumulonimbus

TAF: ZKPY 160410Z 1606/1706 06006MPS 9999 BKN013 BECMG 1611/1613 10004MPS CAVOK TX33/1606Z TN22/1621Z

Obserwacja i prognoza pogody dla ponad 4000 lotnisk (raport METAR i TAF).

Dostępne stacje oznaczono żółtymi i czerwonymi punktami na mapie.

Najedź kursorem aby zobaczyć nazwę stacji.

Kliknij aby zobaczyć obserwacje i prognozy pogody.

Aby zmienić mapę: kliknij na zielony przycisk z czarnym krzyżykiem, aby powiększyć; na zielony przycisk z myślnikiem, aby pomniejszyć; na zielone strzałki, aby przejść do map sąsiednich.


METAR-TAF: